Time,TemperatureF,DewpointF,PressureIn,WindDirection,WindDirectionDegrees,WindSpeedMPH,WindSpeedGustMPH,Humidity,HourlyPrecipIn,Conditions,Clouds,dailyrainin,SolarRadiationWatts/m^2,SoftwareType,DateUTC
2013-01-13 00:00:00,66.7,64.0,30.05,SSE,151,0.0,0.0,91,0.00,,CLR,0.03,0.00,VWS V14.00,2013-01-13 05:00:00,
2013-01-13 00:02:00,66.8,64.1,30.05,SSE,151,0.0,0.0,91,0.00,,CLR,0.00,0.00,VWS V14.00,2013-01-13 05:02:00,
2013-01-13 00:03:00,66.8,64.1,30.05,SSE,151,0.0,0.0,91,0.00,,CLR,0.00,0.00,VWS V14.00,2013-01-13 05:03:00,
2013-01-13 00:08:00,66.7,64.0,30.05,SSE,151,0.0,0.0,91,0.00,,CLR,0.00,0.00,VWS V14.00,2013-01-13 05:08:00,
2013-01-13 00:13:00,66.6,63.9,30.05,SSE,151,0.0,0.0,91,0.00,,CLR,0.00,0.00,VWS V14.00,2013-01-13 05:13:00,
2013-01-13 00:18:00,66.6,63.9,30.05,SSE,151,0.0,0.0,91,0.00,,CLR,0.00,0.00,VWS V14.00,2013-01-13 05:18:00,
2013-01-13 00:23:00,66.6,63.9,30.05,SSE,151,0.0,0.0,91,0.00,,CLR,0.00,0.00,VWS V14.00,2013-01-13 05:23:00,
2013-01-13 00:28:00,66.7,64.0,30.05,SSE,151,0.0,0.0,91,0.00,,CLR,0.00,0.00,VWS V14.00,2013-01-13 05:28:00,
2013-01-13 00:33:00,66.7,64.0,30.05,SSE,151,0.0,0.0,91,0.00,,CLR,0.00,0.00,VWS V14.00,2013-01-13 05:33:00,
2013-01-13 00:38:00,66.6,63.9,30.05,SSE,151,0.0,0.0,91,0.00,,CLR,0.00,0.00,VWS V14.00,2013-01-13 05:38:00,
2013-01-13 00:43:00,66.6,63.9,30.05,SSE,151,0.0,0.0,91,0.00,,CLR,0.00,0.00,VWS V14.00,2013-01-13 05:43:00,
2013-01-13 00:48:00,66.7,64.0,30.05,SSE,151,0.0,0.0,91,0.00,,CLR,0.00,0.00,VWS V14.00,2013-01-13 05:48:00,
2013-01-13 00:53:00,66.8,64.1,30.05,SSE,151,0.0,0.0,91,0.00,,CLR,0.00,0.00,VWS V14.00,2013-01-13 05:53:00,
2013-01-13 00:58:00,66.7,64.0,30.05,SSE,151,0.0,0.0,91,0.00,,CLR,0.00,0.00,VWS V14.00,2013-01-13 05:58:00,
2013-01-13 01:03:00,66.7,64.0,30.05,SSE,151,0.0,0.0,91,0.00,,CLR,0.00,0.00,VWS V14.00,2013-01-13 06:03:00,
2013-01-13 01:08:00,66.8,64.1,30.05,SSE,151,0.0,0.0,91,0.00,,CLR,0.01,0.00,VWS V14.00,2013-01-13 06:08:00,
2013-01-13 01:13:00,67.0,64.6,30.05,SSE,151,0.0,0.0,92,0.11,,CLR,0.02,0.00,VWS V14.00,2013-01-13 06:13:00,
2013-01-13 01:18:00,68.0,65.6,30.05,SSE,151,0.0,0.0,92,0.09,,CLR,0.02,0.00,VWS V14.00,2013-01-13 06:18:00,
2013-01-13 01:23:00,68.4,66.0,30.05,SSE,151,0.0,0.0,92,0.05,,CLR,0.02,0.00,VWS V14.00,2013-01-13 06:23:00,
2013-01-13 01:28:00,68.6,66.2,30.05,SSE,151,0.0,0.0,92,0.04,,CLR,0.02,0.00,VWS V14.00,2013-01-13 06:28:00,
2013-01-13 01:33:00,69.0,66.6,30.05,SSE,151,0.0,0.0,92,0.00,,CLR,0.02,0.00,VWS V14.00,2013-01-13 06:33:00,
2013-01-13 01:38:00,69.3,66.9,30.04,SSE,151,0.0,0.0,92,0.00,,CLR,0.02,0.00,VWS V14.00,2013-01-13 06:38:00,
2013-01-13 01:43:00,69.5,67.1,30.04,SSE,151,0.0,0.0,92,0.00,,CLR,0.02,0.00,VWS V14.00,2013-01-13 06:43:00,
2013-01-13 01:48:00,69.7,67.0,30.04,SSE,151,0.0,0.0,91,0.00,,CLR,0.02,0.00,VWS V14.00,2013-01-13 06:48:00,
2013-01-13 01:53:00,69.8,67.1,30.04,SSE,151,0.0,0.0,91,0.00,,CLR,0.02,0.00,VWS V14.00,2013-01-13 06:53:00,
2013-01-13 01:58:00,69.9,67.5,30.04,SSE,151,0.0,0.0,92,0.00,,CLR,0.02,0.00,VWS V14.00,2013-01-13 06:58:00,
2013-01-13 02:03:00,69.9,67.5,30.04,SSE,151,0.0,0.0,92,0.00,,CLR,0.02,0.00,VWS V14.00,2013-01-13 07:03:00,
2013-01-13 02:08:00,69.9,67.5,30.05,SSE,151,0.0,0.0,92,0.00,,CLR,0.02,0.00,VWS V14.00,2013-01-13 07:08:00,
2013-01-13 02:13:00,70.0,67.6,30.04,SSE,151,1.0,3.0,92,0.00,,CLR,0.02,0.00,VWS V14.00,2013-01-13 07:13:00,
2013-01-13 02:18:00,70.0,67.6,30.04,SSE,151,0.0,2.0,92,0.00,,CLR,0.02,0.00,VWS V14.00,2013-01-13 07:18:00,
2013-01-13 02:23:00,70.1,67.7,30.04,SSE,151,0.0,2.0,92,0.00,,CLR,0.02,0.00,VWS V14.00,2013-01-13 07:23:00,
2013-01-13 02:28:00,70.2,67.4,30.05,SSE,151,3.0,5.0,91,0.00,,CLR,0.02,0.00,VWS V14.00,2013-01-13 07:28:00,
2013-01-13 02:33:00,70.4,67.7,30.05,SSE,151,2.0,4.0,91,0.00,,CLR,0.02,0.00,VWS V14.00,2013-01-13 07:33:00,
2013-01-13 02:39:00,70.4,67.7,30.04,SSE,152,0.0,0.0,91,0.00,,CLR,0.02,0.00,VWS V14.00,2013-01-13 07:39:00,
2013-01-13 02:44:00,70.5,67.4,30.05,SSE,152,4.0,5.0,90,0.00,,CLR,0.02,0.00,VWS V14.00,2013-01-13 07:44:00,
2013-01-13 02:49:00,70.6,67.5,30.04,SSE,152,0.0,4.0,90,0.00,,CLR,0.02,0.00,VWS V14.00,2013-01-13 07:49:00,
2013-01-13 02:54:00,70.7,67.6,30.04,SSE,152,3.0,6.0,90,0.00,,CLR,0.02,0.00,VWS V14.00,2013-01-13 07:54:00,
2013-01-13 02:59:00,70.8,67.7,30.04,SSE,152,2.0,6.0,90,0.00,,CLR,0.02,0.00,VWS V14.00,2013-01-13 07:59:00,
2013-01-13 03:04:00,70.8,67.4,30.04,SSE,152,1.0,1.0,89,0.00,,CLR,0.02,0.00,VWS V14.00,2013-01-13 08:04:00,
2013-01-13 03:09:00,70.9,67.5,30.04,SSE,152,0.0,0.0,89,0.00,,CLR,0.02,0.00,VWS V14.00,2013-01-13 08:09:00,
2013-01-13 03:14:00,71.0,67.6,30.04,SSE,152,2.0,2.0,89,0.00,,CLR,0.02,0.00,VWS V14.00,2013-01-13 08:14:00,
2013-01-13 03:19:00,71.1,67.7,30.03,SSE,152,2.0,5.0,89,0.00,,CLR,0.02,0.00,VWS V14.00,2013-01-13 08:19:00,
2013-01-13 03:24:00,71.2,67.8,30.03,SSE,152,0.0,0.0,89,0.00,,CLR,0.02,0.00,VWS V14.00,2013-01-13 08:24:00,
2013-01-13 03:29:00,71.3,67.6,30.03,SSE,152,1.0,3.0,88,0.00,,CLR,0.02,0.00,VWS V14.00,2013-01-13 08:29:00,
2013-01-13 03:34:00,71.3,67.6,30.03,SSE,152,2.0,6.0,88,0.00,,CLR,0.02,0.00,VWS V14.00,2013-01-13 08:34:00,
2013-01-13 03:39:00,71.4,67.3,30.03,SSE,152,0.0,1.0,87,0.00,,CLR,0.02,0.00,VWS V14.00,2013-01-13 08:39:00,
2013-01-13 03:44:00,71.5,66.8,30.03,SSE,152,2.0,5.0,85,0.00,,CLR,0.02,0.00,VWS V14.00,2013-01-13 08:44:00,
2013-01-13 03:49:00,71.5,66.8,30.03,SSE,152,0.0,4.0,85,0.00,,CLR,0.02,0.00,VWS V14.00,2013-01-13 08:49:00,
2013-01-13 03:54:00,71.6,66.5,30.03,SSE,157,0.0,5.0,84,0.00,,CLR,0.02,0.00,VWS V14.00,2013-01-13 08:54:00,
2013-01-13 03:59:00,71.6,66.2,30.02,SSE,157,5.0,9.0,83,0.00,,CLR,0.02,0.00,VWS V14.00,2013-01-13 08:59:00,
2013-01-13 04:04:00,71.8,66.4,30.03,SSE,157,3.0,6.0,83,0.00,,CLR,0.02,0.00,VWS V14.00,2013-01-13 09:04:00,
2013-01-13 04:09:00,71.8,66.0,30.03,SSE,158,1.0,5.0,82,0.00,,CLR,0.02,0.00,VWS V14.00,2013-01-13 09:09:00,
2013-01-13 04:14:00,71.8,66.0,30.03,SSE,167,1.0,9.0,82,0.00,,CLR,0.02,0.00,VWS V14.00,2013-01-13 09:14:00,
2013-01-13 04:19:00,71.9,65.8,30.03,South,172,2.0,6.0,81,0.00,,CLR,0.02,0.00,VWS V14.00,2013-01-13 09:19:00,
2013-01-13 04:24:00,71.9,65.8,30.03,South,172,2.0,5.0,81,0.00,,CLR,0.02,0.00,VWS V14.00,2013-01-13 09:24:00,
2013-01-13 04:29:00,71.9,65.8,30.03,South,173,0.0,1.0,81,0.00,,CLR,0.02,0.00,VWS V14.00,2013-01-13 09:29:00,
2013-01-13 04:34:00,71.8,65.7,30.03,South,173,1.0,9.0,81,0.00,,CLR,0.02,0.00,VWS V14.00,2013-01-13 09:34:00,
2013-01-13 04:39:00,71.8,65.7,30.04,South,172,2.0,3.0,81,0.00,,CLR,0.02,0.00,VWS V14.00,2013-01-13 09:39:00,
2013-01-13 04:44:00,71.8,65.3,30.03,South,172,1.0,5.0,80,0.00,,CLR,0.02,0.00,VWS V14.00,2013-01-13 09:44:00,
2013-01-13 04:49:00,71.8,65.3,30.04,South,169,1.0,7.0,80,0.00,,CLR,0.02,0.00,VWS V14.00,2013-01-13 09:49:00,
2013-01-13 04:54:00,71.8,65.3,30.03,SSE,167,5.0,9.0,80,0.00,,CLR,0.02,0.00,VWS V14.00,2013-01-13 09:54:00,
2013-01-13 04:59:00,71.9,65.4,30.04,SSE,165,6.0,6.0,80,0.00,,CLR,0.02,0.00,VWS V14.00,2013-01-13 09:59:00,
2013-01-13 05:04:00,71.9,65.4,30.04,SSE,163,0.0,4.0,80,0.00,,CLR,0.02,0.00,VWS V14.00,2013-01-13 10:04:00,
2013-01-13 05:09:00,71.9,65.0,30.04,SSE,163,3.0,3.0,79,0.00,,CLR,0.02,0.00,VWS V14.00,2013-01-13 10:09:00,
2013-01-13 05:14:00,71.9,65.0,30.04,SSE,165,5.0,6.0,79,0.00,,CLR,0.03,0.00,VWS V14.00,2013-01-13 10:14:00,
2013-01-13 05:19:00,71.8,64.9,30.04,SSE,165,0.0,2.0,79,0.00,,CLR,0.03,0.00,VWS V14.00,2013-01-13 10:19:00,
2013-01-13 05:24:00,71.7,64.8,30.04,SSE,165,0.0,1.0,79,0.00,,CLR,0.03,0.00,VWS V14.00,2013-01-13 10:24:00,
2013-01-13 05:29:00,71.6,64.8,30.04,SSE,165,1.0,2.0,79,0.00,,CLR,0.03,0.00,VWS V14.00,2013-01-13 10:29:00,
2013-01-13 05:34:00,71.5,65.0,30.04,SSE,165,0.0,3.0,80,0.00,,CLR,0.03,0.00,VWS V14.00,2013-01-13 10:34:00,
2013-01-13 05:39:00,71.4,64.9,30.04,SSE,165,0.0,3.0,80,0.00,,CLR,0.03,0.00,VWS V14.00,2013-01-13 10:39:00,
2013-01-13 05:44:00,71.3,64.8,30.04,SSE,165,0.0,4.0,80,0.00,,CLR,0.03,0.00,VWS V14.00,2013-01-13 10:44:00,
2013-01-13 05:49:00,71.2,64.7,30.04,SSE,165,0.0,6.0,80,0.00,,CLR,0.03,0.00,VWS V14.00,2013-01-13 10:49:00,
2013-01-13 05:54:00,71.1,64.6,30.04,SSE,165,0.0,1.0,80,0.00,,CLR,0.03,0.00,VWS V14.00,2013-01-13 10:54:00,
2013-01-13 05:59:00,71.0,64.5,30.04,SSE,165,5.0,5.0,80,0.00,,CLR,0.03,0.00,VWS V14.00,2013-01-13 10:59:00,
2013-01-13 06:04:00,71.0,64.5,30.04,SSE,165,0.0,3.0,80,0.00,,CLR,0.03,0.00,VWS V14.00,2013-01-13 11:04:00,
2013-01-13 06:09:00,71.0,64.5,30.04,SSE,165,0.0,3.0,80,0.00,,CLR,0.03,0.00,VWS V14.00,2013-01-13 11:09:00,
2013-01-13 06:14:00,70.9,64.8,30.04,SSE,165,1.0,4.0,81,0.00,,CLR,0.03,0.00,VWS V14.00,2013-01-13 11:14:00,
2013-01-13 06:19:00,70.8,64.7,30.04,SSE,165,0.0,5.0,81,0.00,,CLR,0.03,0.00,VWS V14.00,2013-01-13 11:19:00,
2013-01-13 06:24:00,70.8,64.7,30.04,SSE,165,0.0,0.0,81,0.00,,CLR,0.03,0.00,VWS V14.00,2013-01-13 11:24:00,
2013-01-13 06:29:00,70.7,64.6,30.04,SSE,165,0.0,0.0,81,0.00,,CLR,0.03,0.00,VWS V14.00,2013-01-13 11:29:00,
2013-01-13 06:34:00,70.6,64.8,30.04,SSE,165,1.0,2.0,82,0.00,,CLR,0.03,0.00,VWS V14.00,2013-01-13 11:34:00,
2013-01-13 06:39:00,70.5,64.8,30.04,SSE,165,0.0,0.0,82,0.00,,CLR,0.03,0.00,VWS V14.00,2013-01-13 11:39:00,
2013-01-13 06:44:00,70.4,64.7,30.04,SSE,165,1.0,3.0,82,0.00,,CLR,0.03,0.00,VWS V14.00,2013-01-13 11:44:00,
2013-01-13 06:49:00,70.3,64.9,30.04,SSE,165,0.0,2.0,83,0.00,,CLR,0.03,0.00,VWS V14.00,2013-01-13 11:49:00,
2013-01-13 06:54:00,70.3,64.9,30.04,SSE,165,0.0,2.0,83,0.00,,CLR,0.03,0.00,VWS V14.00,2013-01-13 11:54:00,
2013-01-13 06:59:00,70.3,64.9,30.04,SSE,165,0.0,1.0,83,0.00,,CLR,0.03,0.00,VWS V14.00,2013-01-13 11:59:00,
2013-01-13 07:04:00,70.2,64.8,30.04,SSE,165,0.0,0.0,83,0.00,,CLR,0.03,0.00,VWS V14.00,2013-01-13 12:04:00,
2013-01-13 07:09:00,70.3,65.2,30.04,SSE,165,0.0,6.0,84,0.00,,CLR,0.03,0.00,VWS V14.00,2013-01-13 12:09:00,
2013-01-13 07:14:00,70.3,65.2,30.04,SSE,165,1.0,4.0,84,0.00,,CLR,0.03,0.00,VWS V14.00,2013-01-13 12:14:00,
2013-01-13 07:19:00,70.4,65.3,30.04,SSE,165,4.0,5.0,84,0.00,,CLR,0.03,5.00,VWS V14.00,2013-01-13 12:19:00,
2013-01-13 07:24:00,70.7,65.6,30.04,SSE,165,1.0,6.0,84,0.00,,CLR,0.03,7.00,VWS V14.00,2013-01-13 12:24:00,
2013-01-13 07:29:00,70.9,65.8,30.04,SSE,165,0.0,4.0,84,0.00,,CLR,0.03,14.00,VWS V14.00,2013-01-13 12:29:00,
2013-01-13 07:35:00,71.1,65.7,30.04,SSE,165,3.0,4.0,83,0.00,,FEW040,0.03,21.00,VWS V14.00,2013-01-13 12:35:00,
2013-01-13 07:40:00,71.3,65.9,30.04,SSE,165,0.0,1.0,83,0.00,,FEW040,0.03,25.00,VWS V14.00,2013-01-13 12:40:00,
2013-01-13 07:45:00,71.4,66.0,30.04,SSE,165,0.0,0.0,83,0.00,,FEW040,0.03,26.00,VWS V14.00,2013-01-13 12:45:00,
2013-01-13 07:50:00,71.6,66.2,30.04,SSE,165,3.0,3.0,83,0.00,,FEW040,0.03,28.00,VWS V14.00,2013-01-13 12:50:00,
2013-01-13 07:55:00,71.8,66.0,30.04,SSE,165,3.0,5.0,82,0.00,,FEW040,0.03,30.00,VWS V14.00,2013-01-13 12:55:00,
2013-01-13 08:00:00,71.9,66.1,30.04,SSE,165,0.0,6.0,82,0.00,,FEW040,0.03,18.00,VWS V14.00,2013-01-13 13:00:00,
2013-01-13 08:05:00,72.0,66.2,30.04,SSE,165,0.0,3.0,82,0.00,,FEW040,0.03,16.00,VWS V14.00,2013-01-13 13:05:00,
2013-01-13 08:10:00,72.1,66.7,30.04,SSE,163,3.0,8.0,83,0.00,,FEW040,0.03,21.00,VWS V14.00,2013-01-13 13:10:00,
2013-01-13 08:15:00,72.3,66.8,30.05,SSE,163,4.0,5.0,83,0.00,,FEW040,0.03,39.00,VWS V14.00,2013-01-13 13:15:00,
2013-01-13 08:20:00,72.5,67.1,30.05,SSE,163,0.0,3.0,83,0.00,,FEW040,0.03,47.00,VWS V14.00,2013-01-13 13:20:00,
2013-01-13 08:25:00,72.7,66.9,30.04,SSE,161,1.0,6.0,82,0.00,,FEW040,0.03,25.00,VWS V14.00,2013-01-13 13:25:00,
2013-01-13 08:30:00,72.9,67.1,30.05,SSE,159,3.0,9.0,82,0.00,,FEW040,0.03,32.00,VWS V14.00,2013-01-13 13:30:00,
2013-01-13 08:35:00,73.1,67.3,30.05,SSE,157,4.0,6.0,82,0.00,,FEW040,0.03,39.00,VWS V14.00,2013-01-13 13:35:00,
2013-01-13 08:40:00,73.4,67.6,30.04,SSE,157,6.0,6.0,82,0.00,,FEW040,0.03,33.00,VWS V14.00,2013-01-13 13:40:00,
2013-01-13 08:45:00,73.6,67.8,30.04,SSE,164,0.0,5.0,82,0.00,,FEW040,0.03,54.00,VWS V14.00,2013-01-13 13:45:00,
2013-01-13 08:50:00,73.9,67.7,30.05,SSE,167,4.0,10.0,81,0.00,,FEW040,0.03,98.00,VWS V14.00,2013-01-13 13:50:00,
2013-01-13 08:55:00,74.5,68.3,30.05,SSE,167,1.0,11.0,81,0.00,,FEW040,0.03,102.00,VWS V14.00,2013-01-13 13:55:00,
2013-01-13 09:00:00,74.9,68.3,30.05,SSE,164,4.0,8.0,80,0.00,,FEW040,0.03,88.00,VWS V14.00,2013-01-13 14:00:00,
2013-01-13 09:05:00,75.1,68.2,30.05,South,176,6.0,12.0,79,0.00,,FEW040,0.03,39.00,VWS V14.00,2013-01-13 14:05:00,
2013-01-13 09:10:00,75.0,68.1,30.05,SSE,161,6.0,7.0,79,0.00,,FEW040,0.03,56.00,VWS V14.00,2013-01-13 14:10:00,
2013-01-13 09:15:00,75.0,68.1,30.05,South,172,12.0,13.0,79,0.00,,FEW040,0.03,58.00,VWS V14.00,2013-01-13 14:15:00,
2013-01-13 09:20:00,75.0,67.7,30.05,South,182,1.0,11.0,78,0.00,,FEW040,0.03,93.00,VWS V14.00,2013-01-13 14:20:00,
2013-01-13 09:25:00,75.0,67.7,30.06,SSE,150,1.0,15.0,78,0.00,,FEW040,0.03,46.00,VWS V14.00,2013-01-13 14:25:00,
2013-01-13 09:30:00,75.1,67.8,30.06,SSE,153,5.0,10.0,78,0.00,,FEW040,0.03,120.00,VWS V14.00,2013-01-13 14:30:00,
2013-01-13 09:35:00,75.3,68.3,30.06,South,188,12.0,13.0,79,0.00,,FEW040,0.03,62.00,VWS V14.00,2013-01-13 14:35:00,
2013-01-13 09:40:00,75.5,68.5,30.06,SSE,160,10.0,12.0,79,0.00,,FEW040,0.03,111.00,VWS V14.00,2013-01-13 14:40:00,
2013-01-13 09:45:00,75.7,68.4,30.06,SSE,168,11.0,14.0,78,0.00,,FEW040,0.03,98.00,VWS V14.00,2013-01-13 14:45:00,
2013-01-13 09:50:00,75.7,68.0,30.06,SSE,157,12.0,15.0,77,0.00,,FEW040,0.03,120.00,VWS V14.00,2013-01-13 14:50:00,
2013-01-13 09:55:00,75.9,67.8,30.06,South,176,9.0,10.0,76,0.00,,FEW040,0.03,118.00,VWS V14.00,2013-01-13 14:55:00,
2013-01-13 10:00:00,76.3,67.4,30.06,South,169,6.0,13.0,74,0.00,,FEW040,0.03,74.00,VWS V14.00,2013-01-13 15:00:00,
2013-01-13 10:05:00,76.3,67.4,30.06,SSE,155,7.0,7.0,74,0.00,,FEW040,0.03,118.00,VWS V14.00,2013-01-13 15:05:00,
2013-01-13 10:10:00,76.4,67.5,30.06,SSE,163,7.0,13.0,74,0.00,,FEW040,0.03,98.00,VWS V14.00,2013-01-13 15:10:00,
2013-01-13 10:15:00,76.5,67.2,30.06,SSE,166,13.0,16.0,73,0.00,,FEW040,0.03,98.00,VWS V14.00,2013-01-13 15:15:00,
2013-01-13 10:20:00,76.7,67.4,30.06,SSE,155,3.0,11.0,73,0.00,,FEW040,0.03,100.00,VWS V14.00,2013-01-13 15:20:00,
2013-01-13 10:25:00,77.0,66.9,30.06,South,181,7.0,12.0,71,0.00,,FEW040,0.03,102.00,VWS V14.00,2013-01-13 15:25:00,
2013-01-13 10:30:00,77.1,67.0,30.06,South,178,0.0,13.0,71,0.00,,FEW040,0.03,116.00,VWS V14.00,2013-01-13 15:30:00,
2013-01-13 10:35:00,77.4,67.3,30.06,SSE,168,4.0,14.0,71,0.00,,FEW040,0.03,130.00,VWS V14.00,2013-01-13 15:35:00,
2013-01-13 10:40:00,77.4,67.3,30.06,SSE,165,12.0,16.0,71,0.00,,BKN020,0.03,109.00,VWS V14.00,2013-01-13 15:40:00,
2013-01-13 10:45:00,77.4,67.7,30.06,SSE,157,4.0,7.0,72,0.00,,BKN020,0.03,107.00,VWS V14.00,2013-01-13 15:45:00,
2013-01-13 10:50:00,77.4,67.3,30.06,SSE,163,4.0,10.0,71,0.00,,BKN020,0.03,114.00,VWS V14.00,2013-01-13 15:50:00,
2013-01-13 10:55:00,77.5,66.9,30.06,South,186,4.0,11.0,70,0.00,,BKN020,0.03,118.00,VWS V14.00,2013-01-13 15:55:00,
2013-01-13 11:00:00,77.7,67.6,30.06,South,182,5.0,13.0,71,0.00,,BKN020,0.03,118.00,VWS V14.00,2013-01-13 16:00:00,
2013-01-13 11:05:00,77.7,66.7,30.06,South,182,5.0,7.0,69,0.00,,BKN020,0.03,120.00,VWS V14.00,2013-01-13 16:05:00,
2013-01-13 11:10:00,77.8,67.7,30.06,South,186,8.0,14.0,71,0.00,,BKN020,0.03,125.00,VWS V14.00,2013-01-13 16:10:00,
2013-01-13 11:15:00,78.0,67.4,30.06,SSE,158,6.0,16.0,70,0.00,,BKN020,0.03,67.00,VWS V14.00,2013-01-13 16:15:00,
2013-01-13 11:20:00,77.7,67.1,30.07,South,181,5.0,10.0,70,0.00,,BKN020,0.03,142.00,VWS V14.00,2013-01-13 16:20:00,
2013-01-13 11:25:00,77.9,67.8,30.07,SE,145,11.0,11.0,71,0.00,,BKN020,0.03,132.00,VWS V14.00,2013-01-13 16:25:00,
2013-01-13 11:31:00,77.8,67.7,30.07,South,191,6.0,11.0,71,0.00,,BKN020,0.03,60.00,VWS V14.00,2013-01-13 16:31:00,
2013-01-13 11:36:00,77.6,67.1,30.07,SSE,155,5.0,12.0,70,0.00,,FEW050,0.03,65.00,VWS V14.00,2013-01-13 16:36:00,
2013-01-13 11:41:00,77.8,67.2,30.07,SSE,159,9.0,10.0,70,0.00,,FEW050,0.03,158.00,VWS V14.00,2013-01-13 16:41:00,
2013-01-13 11:46:00,78.0,67.4,30.07,SSE,157,5.0,10.0,70,0.00,,FEW050,0.03,83.00,VWS V14.00,2013-01-13 16:46:00,
2013-01-13 11:51:00,78.1,67.9,30.07,SSW,203,8.0,11.0,71,0.00,,FEW050,0.03,93.00,VWS V14.00,2013-01-13 16:51:00,
2013-01-13 11:56:00,77.8,67.2,30.07,SSW,199,8.0,13.0,70,0.00,,FEW050,0.03,163.00,VWS V14.00,2013-01-13 16:56:00,
2013-01-13 12:01:00,77.8,67.7,30.07,South,191,5.0,13.0,71,0.00,,FEW050,0.03,169.00,VWS V14.00,2013-01-13 17:01:00,
2013-01-13 12:06:00,78.0,67.4,30.07,South,186,6.0,11.0,70,0.00,,FEW050,0.03,163.00,VWS V14.00,2013-01-13 17:06:00,
2013-01-13 12:11:00,78.3,67.3,30.07,South,184,4.0,11.0,69,0.00,,FEW050,0.03,81.00,VWS V14.00,2013-01-13 17:11:00,
2013-01-13 12:16:00,78.5,67.5,30.07,SSW,196,11.0,12.0,69,0.00,,FEW050,0.03,171.00,VWS V14.00,2013-01-13 17:16:00,
2013-01-13 12:21:00,78.3,66.9,30.07,South,186,4.0,6.0,68,0.00,,FEW050,0.03,77.00,VWS V14.00,2013-01-13 17:21:00,
2013-01-13 12:26:00,78.2,66.8,30.07,SSE,158,2.0,8.0,68,0.00,,FEW050,0.03,67.00,VWS V14.00,2013-01-13 17:26:00,
2013-01-13 12:31:00,78.3,66.9,30.06,South,179,4.0,13.0,68,0.00,,FEW050,0.03,162.00,VWS V14.00,2013-01-13 17:31:00,
2013-01-13 12:36:00,78.4,66.6,30.07,South,173,4.0,6.0,67,0.00,,SCT030,0.03,156.00,VWS V14.00,2013-01-13 17:36:00,
2013-01-13 12:41:00,78.4,66.1,30.07,South,173,5.0,9.0,66,0.00,,SCT030,0.03,63.00,VWS V14.00,2013-01-13 17:41:00,
2013-01-13 12:46:00,78.2,66.4,30.06,South,171,1.0,1.0,67,0.00,,SCT030,0.03,153.00,VWS V14.00,2013-01-13 17:46:00,
2013-01-13 12:51:00,78.6,65.9,30.06,SSW,202,5.0,11.0,65,0.00,,SCT030,0.03,151.00,VWS V14.00,2013-01-13 17:51:00,
2013-01-13 12:56:00,78.7,66.0,30.06,South,182,5.0,11.0,65,0.00,,SCT030,0.03,148.00,VWS V14.00,2013-01-13 17:56:00,
2013-01-13 13:01:00,79.1,65.9,30.06,SSE,165,4.0,9.0,64,0.00,,SCT030,0.03,146.00,VWS V14.00,2013-01-13 18:01:00,
2013-01-13 13:06:00,79.3,66.5,30.06,South,173,4.0,8.0,65,0.00,,SCT030,0.03,142.00,VWS V14.00,2013-01-13 18:06:00,
2013-01-13 13:11:00,79.3,65.6,30.06,SSW,206,6.0,9.0,63,0.00,,SCT030,0.03,137.00,VWS V14.00,2013-01-13 18:11:00,
2013-01-13 13:16:00,78.7,65.5,30.06,SSW,192,10.0,11.0,64,0.00,,SCT030,0.03,146.00,VWS V14.00,2013-01-13 18:16:00,
2013-01-13 13:21:00,78.6,65.4,30.06,South,186,6.0,9.0,64,0.00,,SCT030,0.03,49.00,VWS V14.00,2013-01-13 18:21:00,
2013-01-13 13:26:00,78.2,65.5,30.06,SSW,202,4.0,4.0,65,0.00,,SCT030,0.03,58.00,VWS V14.00,2013-01-13 18:26:00,
2013-01-13 13:31:00,78.2,65.9,30.06,SSW,204,4.0,9.0,66,0.00,,SCT030,0.03,144.00,VWS V14.00,2013-01-13 18:31:00,
2013-01-13 13:36:00,78.7,66.0,30.06,South,184,5.0,10.0,65,0.00,,SCT030,0.03,142.00,VWS V14.00,2013-01-13 18:36:00,
2013-01-13 13:41:00,79.1,65.9,30.05,SSE,166,5.0,7.0,64,0.00,,SCT030,0.03,137.00,VWS V14.00,2013-01-13 18:41:00,
2013-01-13 13:46:00,79.1,65.9,30.05,SE,144,5.0,6.0,64,0.00,,SCT030,0.03,144.00,VWS V14.00,2013-01-13 18:46:00,
2013-01-13 13:51:00,79.1,65.9,30.05,SSE,165,7.0,7.0,64,0.00,,SCT030,0.03,134.00,VWS V14.00,2013-01-13 18:51:00,
2013-01-13 13:56:00,79.3,65.6,30.05,SSE,166,3.0,7.0,63,0.00,,SCT030,0.03,44.00,VWS V14.00,2013-01-13 18:56:00,
2013-01-13 14:01:00,78.8,65.2,30.05,South,182,3.0,6.0,63,0.00,,SCT030,0.03,65.00,VWS V14.00,2013-01-13 19:01:00,
2013-01-13 14:06:00,78.7,65.1,30.05,South,184,4.0,9.0,63,0.00,,SCT030,0.03,130.00,VWS V14.00,2013-01-13 19:06:00,
2013-01-13 14:11:00,79.2,65.5,30.05,SSW,197,9.0,11.0,63,0.00,,SCT030,0.03,132.00,VWS V14.00,2013-01-13 19:11:00,
2013-01-13 14:16:00,79.3,66.1,30.05,SSE,159,5.0,13.0,64,0.00,,SCT030,0.03,134.00,VWS V14.00,2013-01-13 19:16:00,
2013-01-13 14:21:00,79.5,65.8,30.05,South,186,4.0,7.0,63,0.00,,SCT030,0.03,121.00,VWS V14.00,2013-01-13 19:21:00,
2013-01-13 14:26:00,79.2,65.5,30.05,SSE,158,4.0,7.0,63,0.00,,SCT030,0.03,123.00,VWS V14.00,2013-01-13 19:26:00,
2013-01-13 14:31:00,79.0,65.8,30.05,SSE,167,11.0,11.0,64,0.00,,SCT030,0.03,44.00,VWS V14.00,2013-01-13 19:31:00,
2013-01-13 14:36:00,78.3,65.1,30.05,South,172,6.0,7.0,64,0.00,,SCT030,0.03,109.00,VWS V14.00,2013-01-13 19:36:00,
2013-01-13 14:41:00,78.2,65.0,30.04,South,174,6.0,10.0,64,0.00,,SCT030,0.03,121.00,VWS V14.00,2013-01-13 19:41:00,
2013-01-13 14:46:00,78.6,65.4,30.04,South,179,5.0,10.0,64,0.00,,SCT030,0.03,54.00,VWS V14.00,2013-01-13 19:46:00,
2013-01-13 14:51:00,78.6,65.4,30.04,South,174,10.0,10.0,64,0.00,,SCT030,0.03,104.00,VWS V14.00,2013-01-13 19:51:00,
2013-01-13 14:56:00,78.7,65.5,30.05,South,186,0.0,10.0,64,0.00,,SCT030,0.03,107.00,VWS V14.00,2013-01-13 19:56:00,
2013-01-13 15:01:00,79.0,66.2,30.05,South,175,0.0,5.0,65,0.00,,SCT030,0.03,102.00,VWS V14.00,2013-01-13 20:01:00,
2013-01-13 15:06:00,79.1,65.4,30.05,South,175,6.0,7.0,63,0.00,,SCT030,0.03,97.00,VWS V14.00,2013-01-13 20:06:00,
2013-01-13 15:11:00,78.9,65.2,30.05,SSE,150,6.0,10.0,63,0.00,,SCT030,0.03,97.00,VWS V14.00,2013-01-13 20:11:00,
2013-01-13 15:16:00,78.6,65.4,30.05,SE,125,8.0,11.0,64,0.00,,SCT030,0.03,90.00,VWS V14.00,2013-01-13 20:16:00,
2013-01-13 15:21:00,78.4,65.2,30.05,SSE,159,7.0,11.0,64,0.00,,SCT030,0.03,86.00,VWS V14.00,2013-01-13 20:21:00,
2013-01-13 15:26:00,78.3,65.1,30.05,SSE,163,4.0,11.0,64,0.00,,SCT030,0.03,86.00,VWS V14.00,2013-01-13 20:26:00,
2013-01-13 15:31:00,78.0,65.3,30.05,SSE,152,2.0,5.0,65,0.00,,SCT030,0.03,46.00,VWS V14.00,2013-01-13 20:31:00,
2013-01-13 15:36:00,78.0,65.7,30.06,SSE,157,1.0,5.0,66,0.00,,FEW025,0.03,90.00,VWS V14.00,2013-01-13 20:36:00,
2013-01-13 15:41:00,78.3,65.1,30.06,South,173,0.0,1.0,64,0.00,,FEW025,0.03,77.00,VWS V14.00,2013-01-13 20:41:00,
2013-01-13 15:46:00,78.6,65.4,30.06,SSE,166,4.0,7.0,64,0.00,,FEW025,0.03,79.00,VWS V14.00,2013-01-13 20:46:00,
2013-01-13 15:51:00,78.5,65.3,30.06,South,183,1.0,6.0,64,0.00,,FEW025,0.03,79.00,VWS V14.00,2013-01-13 20:51:00,
2013-01-13 15:56:00,78.4,65.2,30.06,South,186,5.0,9.0,64,0.00,,FEW025,0.03,79.00,VWS V14.00,2013-01-13 20:56:00,
2013-01-13 16:01:00,78.5,65.8,30.06,South,173,0.0,3.0,65,0.00,,FEW025,0.03,47.00,VWS V14.00,2013-01-13 21:01:00,
2013-01-13 16:06:00,78.3,66.0,30.06,South,185,0.0,7.0,66,0.00,,FEW025,0.03,76.00,VWS V14.00,2013-01-13 21:06:00,
2013-01-13 16:11:00,78.3,65.6,30.06,SSE,148,4.0,10.0,65,0.00,,FEW025,0.03,72.00,VWS V14.00,2013-01-13 21:11:00,
2013-01-13 16:16:00,78.2,65.0,30.07,SSE,163,3.0,9.0,64,0.00,,FEW025,0.03,44.00,VWS V14.00,2013-01-13 21:16:00,
2013-01-13 16:21:00,77.9,65.2,30.07,SSE,157,6.0,10.0,65,0.00,,FEW025,0.03,67.00,VWS V14.00,2013-01-13 21:21:00,
2013-01-13 16:26:00,77.6,65.8,30.07,SSE,164,0.0,2.0,67,0.00,,FEW025,0.03,58.00,VWS V14.00,2013-01-13 21:26:00,
2013-01-13 16:31:00,77.5,65.3,30.07,SSE,154,6.0,9.0,66,0.00,,FEW025,0.03,60.00,VWS V14.00,2013-01-13 21:31:00,
2013-01-13 16:36:00,77.3,65.5,30.07,SE,138,3.0,7.0,67,0.00,,SCT080,0.03,58.00,VWS V14.00,2013-01-13 21:36:00,
2013-01-13 16:41:00,77.1,65.7,30.07,SE,128,4.0,6.0,68,0.00,,SCT080,0.03,47.00,VWS V14.00,2013-01-13 21:41:00,
2013-01-13 16:46:00,77.0,65.6,30.07,SSE,157,11.0,11.0,68,0.00,,SCT080,0.03,63.00,VWS V14.00,2013-01-13 21:46:00,
2013-01-13 16:51:00,77.0,66.5,30.07,SSE,156,6.0,10.0,70,0.00,,SCT080,0.03,37.00,VWS V14.00,2013-01-13 21:51:00,
2013-01-13 16:56:00,76.8,66.7,30.07,SE,145,1.0,7.0,71,0.00,,SCT080,0.03,33.00,VWS V14.00,2013-01-13 21:56:00,
2013-01-13 17:02:00,76.5,66.8,30.08,SSE,161,9.0,10.0,72,0.00,,SCT080,0.03,32.00,VWS V14.00,2013-01-13 22:02:00,
2013-01-13 17:07:00,76.2,66.5,30.08,SSE,154,5.0,8.0,72,0.00,,SCT080,0.03,14.00,VWS V14.00,2013-01-13 22:07:00,
2013-01-13 17:12:00,75.9,66.2,30.07,South,169,6.0,10.0,72,0.00,,SCT080,0.03,9.00,VWS V14.00,2013-01-13 22:12:00,
2013-01-13 17:17:00,75.7,66.0,30.07,SSE,151,5.0,8.0,72,0.00,,SCT080,0.03,9.00,VWS V14.00,2013-01-13 22:17:00,
2013-01-13 17:22:00,75.4,65.8,30.07,SSE,168,6.0,9.0,72,0.00,,SCT080,0.03,7.00,VWS V14.00,2013-01-13 22:22:00,
2013-01-13 17:27:00,75.3,65.7,30.07,SSE,161,2.0,6.0,72,0.00,,SCT080,0.03,5.00,VWS V14.00,2013-01-13 22:27:00,
2013-01-13 17:32:00,75.1,65.9,30.08,SSE,157,4.0,9.0,73,0.00,,SCT100,0.03,5.00,VWS V14.00,2013-01-13 22:32:00,
2013-01-13 17:37:00,75.0,65.8,30.08,SSE,159,6.0,10.0,73,0.00,,SCT100,0.03,0.00,VWS V14.00,2013-01-13 22:37:00,
2013-01-13 17:42:00,75.0,65.8,30.08,SSE,159,4.0,7.0,73,0.00,,SCT100,0.03,0.00,VWS V14.00,2013-01-13 22:42:00,
2013-01-13 17:47:00,74.9,65.7,30.08,SSE,164,4.0,5.0,73,0.00,,SCT100,0.03,0.00,VWS V14.00,2013-01-13 22:47:00,
2013-01-13 17:52:00,74.8,66.0,30.08,SSE,159,1.0,10.0,74,0.00,,SCT100,0.03,0.00,VWS V14.00,2013-01-13 22:52:00,
2013-01-13 17:57:00,74.8,66.0,30.08,SSE,157,7.0,9.0,74,0.00,,SCT100,0.03,0.00,VWS V14.00,2013-01-13 22:57:00,
2013-01-13 18:02:00,74.7,65.9,30.08,SSE,160,0.0,5.0,74,0.00,,SCT100,0.03,0.00,VWS V14.00,2013-01-13 23:02:00,
2013-01-13 18:07:00,74.6,65.8,30.08,SSE,165,2.0,5.0,74,0.00,,SCT100,0.03,0.00,VWS V14.00,2013-01-13 23:07:00,
2013-01-13 18:12:00,74.5,65.7,30.08,SSE,165,0.0,3.0,74,0.00,,SCT100,0.03,0.00,VWS V14.00,2013-01-13 23:12:00,
2013-01-13 18:17:00,74.4,65.6,30.08,SSE,165,3.0,6.0,74,0.00,,SCT100,0.03,0.00,VWS V14.00,2013-01-13 23:17:00,
2013-01-13 18:22:00,74.3,65.5,30.09,SSE,165,0.0,0.0,74,0.00,,SCT100,0.03,0.00,VWS V14.00,2013-01-13 23:22:00,
2013-01-13 18:27:00,74.2,65.4,30.09,SSE,165,0.0,0.0,74,0.00,,SCT100,0.03,0.00,VWS V14.00,2013-01-13 23:27:00,
2013-01-13 18:32:00,74.0,65.6,30.08,SSE,165,2.0,4.0,75,0.00,,SCT250,0.03,0.00,VWS V14.00,2013-01-13 23:32:00,
2013-01-13 18:37:00,73.9,65.5,30.08,SSE,165,1.0,3.0,75,0.00,,SCT250,0.03,0.00,VWS V14.00,2013-01-13 23:37:00,
2013-01-13 18:42:00,73.8,65.8,30.08,SSE,165,0.0,0.0,76,0.00,,SCT250,0.03,0.00,VWS V14.00,2013-01-13 23:42:00,
2013-01-13 18:47:00,73.6,65.6,30.08,SSE,165,1.0,2.0,76,0.00,,SCT250,0.03,0.00,VWS V14.00,2013-01-13 23:47:00,
2013-01-13 18:52:00,73.5,65.5,30.08,SSE,165,0.0,0.0,76,0.00,,SCT250,0.03,0.00,VWS V14.00,2013-01-13 23:52:00,
2013-01-13 18:57:00,73.3,64.9,30.08,SSE,165,3.0,4.0,75,0.00,,SCT250,0.03,0.00,VWS V14.00,2013-01-13 23:57:00,
2013-01-13 19:02:00,73.3,65.3,30.08,SSE,165,0.0,1.0,76,0.00,,SCT250,0.03,0.00,VWS V14.00,2013-01-14 00:02:00,
2013-01-13 19:07:00,73.2,64.8,30.08,SSE,165,1.0,3.0,75,0.00,,BKN250,0.03,0.00,VWS V14.00,2013-01-14 00:07:00,
2013-01-13 19:12:00,73.1,65.1,30.08,SSE,165,0.0,2.0,76,0.00,,BKN250,0.03,0.00,VWS V14.00,2013-01-14 00:12:00,
2013-01-13 19:17:00,73.1,65.1,30.08,SSE,165,0.0,4.0,76,0.00,,BKN250,0.03,0.00,VWS V14.00,2013-01-14 00:17:00,
2013-01-13 19:22:00,73.0,65.0,30.08,SSE,165,0.0,0.0,76,0.00,,BKN250,0.03,0.00,VWS V14.00,2013-01-14 00:22:00,
2013-01-13 19:27:00,73.0,65.0,30.09,SSE,165,2.0,3.0,76,0.00,,BKN250,0.03,0.00,VWS V14.00,2013-01-14 00:27:00,
2013-01-13 19:32:00,73.0,65.0,30.08,SSE,165,0.0,5.0,76,0.00,,BKN250,0.03,0.00,VWS V14.00,2013-01-14 00:32:00,
2013-01-13 19:37:00,73.1,65.1,30.08,SSE,165,0.0,0.0,76,0.00,,BKN250,0.03,0.00,VWS V14.00,2013-01-14 00:37:00,
2013-01-13 19:42:00,73.1,65.1,30.08,SSE,165,0.0,2.0,76,0.00,,BKN250,0.03,0.00,VWS V14.00,2013-01-14 00:42:00,
2013-01-13 19:47:00,73.1,65.1,30.08,SSE,165,3.0,3.0,76,0.00,,BKN250,0.03,0.00,VWS V14.00,2013-01-14 00:47:00,
2013-01-13 19:52:00,73.2,65.2,30.08,SSE,165,0.0,4.0,76,0.00,,BKN250,0.03,0.00,VWS V14.00,2013-01-14 00:52:00,
2013-01-13 19:57:00,73.3,65.3,30.08,SSE,165,0.0,0.0,76,0.00,,BKN250,0.03,0.00,VWS V14.00,2013-01-14 00:57:00,
2013-01-13 20:02:00,73.4,65.4,30.08,South,169,0.0,3.0,76,0.00,,BKN250,0.03,0.00,VWS V14.00,2013-01-14 01:02:00,
2013-01-13 20:07:00,73.5,65.5,30.07,South,171,4.0,6.0,76,0.00,,BKN250,0.03,0.00,VWS V14.00,2013-01-14 01:07:00,
2013-01-13 20:12:00,73.6,65.6,30.08,South,169,3.0,5.0,76,0.00,,BKN250,0.03,0.00,VWS V14.00,2013-01-14 01:12:00,
2013-01-13 20:17:00,73.6,65.6,30.08,South,171,1.0,3.0,76,0.00,,BKN250,0.03,0.00,VWS V14.00,2013-01-14 01:17:00,
2013-01-13 20:22:00,73.6,65.6,30.07,South,171,6.0,6.0,76,0.00,,BKN250,0.03,0.00,VWS V14.00,2013-01-14 01:22:00,
2013-01-13 20:27:00,73.5,65.5,30.07,South,171,2.0,4.0,76,0.00,,BKN250,0.03,0.00,VWS V14.00,2013-01-14 01:27:00,
2013-01-13 20:32:00,73.5,65.9,30.07,SSE,167,0.0,5.0,77,0.00,,BKN250,0.03,0.00,VWS V14.00,2013-01-14 01:32:00,
2013-01-13 20:37:00,73.5,65.9,30.07,SSE,167,0.0,3.0,77,0.00,,BKN250,0.03,0.00,VWS V14.00,2013-01-14 01:37:00,
2013-01-13 20:42:00,73.5,65.9,30.07,SSE,167,4.0,7.0,77,0.00,,BKN250,0.03,0.00,VWS V14.00,2013-01-14 01:42:00,
2013-01-13 20:47:00,73.4,65.8,30.06,SSE,167,2.0,7.0,77,0.00,,BKN250,0.03,0.00,VWS V14.00,2013-01-14 01:47:00,
2013-01-13 20:52:00,73.4,65.4,30.07,SSE,167,0.0,4.0,76,0.00,,BKN250,0.03,0.00,VWS V14.00,2013-01-14 01:52:00,
2013-01-13 20:57:00,73.4,65.4,30.06,South,176,3.0,11.0,76,0.00,,BKN250,0.03,0.00,VWS V14.00,2013-01-14 01:57:00,
2013-01-13 21:02:00,73.4,65.0,30.06,South,172,3.0,6.0,75,0.00,,BKN250,0.03,0.00,VWS V14.00,2013-01-14 02:02:00,
2013-01-13 21:07:00,73.4,65.0,30.06,SSE,167,0.0,5.0,75,0.00,,BKN250,0.03,0.00,VWS V14.00,2013-01-14 02:07:00,
2013-01-13 21:12:00,73.3,64.9,30.06,South,171,5.0,7.0,75,0.00,,BKN250,0.03,0.00,VWS V14.00,2013-01-14 02:12:00,
2013-01-13 21:17:00,73.3,64.9,30.06,SSE,165,2.0,5.0,75,0.00,,BKN250,0.03,0.00,VWS V14.00,2013-01-14 02:17:00,
2013-01-13 21:22:00,73.3,64.9,30.06,SSE,163,3.0,4.0,75,0.00,,BKN250,0.03,0.00,VWS V14.00,2013-01-14 02:22:00,
2013-01-13 21:27:00,73.2,64.8,30.06,South,173,2.0,5.0,75,0.00,,BKN250,0.03,0.00,VWS V14.00,2013-01-14 02:27:00,
2013-01-13 21:32:00,73.2,64.8,30.06,South,169,0.0,5.0,75,0.00,,BKN250,0.03,0.00,VWS V14.00,2013-01-14 02:32:00,
2013-01-13 21:37:00,73.2,64.8,30.05,SSE,167,6.0,6.0,75,0.00,,BKN250,0.03,0.00,VWS V14.00,2013-01-14 02:37:00,
2013-01-13 21:42:00,73.2,64.8,30.05,SSE,168,1.0,4.0,75,0.00,,BKN250,0.03,0.00,VWS V14.00,2013-01-14 02:42:00,
2013-01-13 21:48:00,73.3,65.3,30.05,SSE,166,3.0,4.0,76,0.00,,BKN250,0.03,0.00,VWS V14.00,2013-01-14 02:48:00,
2013-01-13 21:53:00,73.4,65.4,30.05,South,169,5.0,7.0,76,0.00,,BKN250,0.03,0.00,VWS V14.00,2013-01-14 02:53:00,
2013-01-13 21:58:00,73.6,65.6,30.06,SSE,153,2.0,7.0,76,0.00,,BKN250,0.03,0.00,VWS V14.00,2013-01-14 02:58:00,
2013-01-13 22:03:00,73.8,65.8,30.06,South,172,7.0,13.0,76,0.00,,BKN250,0.03,0.00,VWS V14.00,2013-01-14 03:03:00,
2013-01-13 22:08:00,73.9,65.5,30.06,SSE,165,2.0,6.0,75,0.00,,BKN250,0.03,0.00,VWS V14.00,2013-01-14 03:08:00,
2013-01-13 22:13:00,73.9,65.5,30.06,SSE,168,0.0,4.0,75,0.00,,BKN250,0.03,0.00,VWS V14.00,2013-01-14 03:13:00,
2013-01-13 22:18:00,74.0,65.6,30.06,South,171,5.0,5.0,75,0.00,,BKN250,0.03,0.00,VWS V14.00,2013-01-14 03:18:00,
2013-01-13 22:23:00,74.0,65.6,30.07,South,171,6.0,9.0,75,0.00,,BKN250,0.03,0.00,VWS V14.00,2013-01-14 03:23:00,
2013-01-13 22:28:00,74.1,66.1,30.07,South,172,7.0,9.0,76,0.00,,BKN250,0.03,0.00,VWS V14.00,2013-01-14 03:28:00,
2013-01-13 22:33:00,74.1,65.7,30.07,South,179,4.0,12.0,75,0.00,,OVC250,0.03,0.00,VWS V14.00,2013-01-14 03:33:00,
2013-01-13 22:38:00,74.2,65.8,30.07,South,178,10.0,10.0,75,0.00,,OVC250,0.03,0.00,VWS V14.00,2013-01-14 03:38:00,
2013-01-13 22:43:00,74.2,65.4,30.07,South,176,3.0,6.0,74,0.00,,OVC250,0.03,0.00,VWS V14.00,2013-01-14 03:43:00,
2013-01-13 22:48:00,74.1,65.3,30.07,SSE,163,10.0,12.0,74,0.00,,OVC250,0.03,0.00,VWS V14.00,2013-01-14 03:48:00,
2013-01-13 22:53:00,74.0,64.8,30.07,South,171,1.0,5.0,73,0.00,,OVC250,0.03,0.00,VWS V14.00,2013-01-14 03:53:00,
2013-01-13 22:58:00,74.0,64.8,30.07,South,178,6.0,7.0,73,0.00,,OVC250,0.03,0.00,VWS V14.00,2013-01-14 03:58:00,
2013-01-13 23:03:00,73.9,64.3,30.07,SSE,163,8.0,9.0,72,0.00,,OVC250,0.03,0.00,VWS V14.00,2013-01-14 04:03:00,
2013-01-13 23:08:00,73.9,64.3,30.07,SSE,167,4.0,6.0,72,0.00,,OVC250,0.03,0.00,VWS V14.00,2013-01-14 04:08:00,
2013-01-13 23:13:00,73.8,64.2,30.07,SSE,167,0.0,5.0,72,0.00,,OVC250,0.03,0.00,VWS V14.00,2013-01-14 04:13:00,
2013-01-13 23:18:00,73.6,64.4,30.07,South,170,0.0,5.0,73,0.00,,OVC250,0.03,0.00,VWS V14.00,2013-01-14 04:18:00,
2013-01-13 23:23:00,73.4,64.2,30.07,SSE,166,4.0,9.0,73,0.00,,OVC250,0.03,0.00,VWS V14.00,2013-01-14 04:23:00,
2013-01-13 23:28:00,73.3,64.1,30.06,SSE,167,5.0,7.0,73,0.00,,OVC250,0.03,0.00,VWS V14.00,2013-01-14 04:28:00,
2013-01-13 23:33:00,73.3,64.1,30.07,South,169,1.0,4.0,73,0.00,,OVC250,0.03,0.00,VWS V14.00,2013-01-14 04:33:00,
2013-01-13 23:38:00,73.1,63.9,30.07,South,169,1.0,4.0,73,0.00,,OVC250,0.03,0.00,VWS V14.00,2013-01-14 04:38:00,
2013-01-13 23:43:00,73.1,63.9,30.07,South,174,0.0,5.0,73,0.00,,OVC250,0.03,0.00,VWS V14.00,2013-01-14 04:43:00,
2013-01-13 23:48:00,73.0,63.8,30.08,South,174,2.0,5.0,73,0.00,,OVC250,0.03,0.00,VWS V14.00,2013-01-14 04:48:00,
2013-01-13 23:53:00,73.0,63.8,30.08,South,174,0.0,1.0,73,0.00,,OVC250,0.03,0.00,VWS V14.00,2013-01-14 04:53:00,
2013-01-13 23:58:00,72.9,63.8,30.08,South,174,0.0,3.0,73,0.00,,OVC250,0.03,0.00,VWS V14.00,2013-01-14 04:58:00,